createdAt,value
2018-02-11T00:00:06.157Z,22.14
2018-02-11T00:00:38.198Z,22.2
2018-02-11T00:01:10.305Z,22.22
2018-02-11T00:01:42.358Z,22.18
2018-02-11T00:02:14.344Z,22.09
2018-02-11T00:02:46.387Z,22.15
2018-02-11T00:03:18.392Z,22.09
2018-02-11T00:03:50.369Z,22.18
2018-02-11T00:04:22.390Z,22.08
2018-02-11T00:04:54.405Z,22.12
2018-02-11T00:05:26.450Z,22.22
2018-02-11T00:05:58.430Z,22.14
2018-02-11T00:06:30.546Z,22.23
2018-02-11T00:07:02.549Z,22.14
2018-02-11T00:07:34.571Z,22.07
2018-02-11T00:08:06.627Z,22.14
2018-02-11T00:08:38.606Z,22.08
2018-02-11T00:09:10.568Z,22.11
2018-02-11T00:09:42.645Z,22.12
2018-02-11T00:10:14.688Z,22.05
2018-02-11T00:10:46.679Z,22.09
2018-02-11T00:11:18.684Z,22.11
2018-02-11T00:11:50.723Z,22.04
2018-02-11T00:12:22.713Z,22.09
2018-02-11T00:12:54.776Z,22.11
2018-02-11T00:13:26.783Z,22.11
2018-02-11T00:13:58.825Z,22.14
2018-02-11T00:14:30.832Z,22.14
2018-02-11T00:15:02.810Z,22.11
2018-02-11T00:15:34.856Z,22.04
2018-02-11T00:16:06.828Z,22.05
2018-02-11T00:16:38.822Z,22.08
2018-02-11T00:17:11.664Z,22.09
2018-02-11T00:17:43.732Z,22.07
2018-02-11T00:18:15.712Z,22.07
2018-02-11T00:18:47.700Z,22
2018-02-11T00:19:19.729Z,21.99
2018-02-11T00:19:51.734Z,22.09
2018-02-11T00:20:24.373Z,22.05
2018-02-11T00:20:56.390Z,22.04
2018-02-11T00:21:28.431Z,22.02
2018-02-11T00:22:00.426Z,22.04
2018-02-11T00:22:32.426Z,22.05
2018-02-11T00:23:04.411Z,21.97
2018-02-11T00:23:36.398Z,22
2018-02-11T00:24:08.483Z,22.05
2018-02-11T00:24:40.516Z,22.07
2018-02-11T00:25:12.568Z,22.07
2018-02-11T00:25:44.549Z,22.11
2018-02-11T00:26:16.604Z,21.99
2018-02-11T00:26:48.730Z,22
2018-02-11T00:27:20.727Z,21.96
2018-02-11T00:27:52.766Z,22.04
2018-02-11T00:28:24.746Z,21.96
2018-02-11T00:28:56.724Z,21.96
2018-02-11T00:29:28.728Z,21.97
2018-02-11T00:30:01.332Z,21.99
2018-02-11T00:30:33.365Z,22.05
2018-02-11T00:31:06.082Z,22.09
2018-02-11T00:31:38.103Z,22.05
2018-02-11T00:32:10.205Z,22
2018-02-11T00:32:42.221Z,22.07
2018-02-11T00:33:14.231Z,22.04
2018-02-11T00:33:46.248Z,22.08
2018-02-11T00:34:18.341Z,22.08
2018-02-11T00:34:50.346Z,22.04
2018-02-11T00:35:22.400Z,22.02
2018-02-11T00:35:54.458Z,22.08
2018-02-11T00:36:26.482Z,22.02
2018-02-11T00:36:58.492Z,22.05
2018-02-11T00:37:31.411Z,22.08
2018-02-11T00:38:03.491Z,22.09
2018-02-11T00:38:35.487Z,22.04
2018-02-11T00:39:07.490Z,22.14
2018-02-11T00:39:39.542Z,22.09
2018-02-11T00:40:12.095Z,22.04
2018-02-11T00:40:44.098Z,22.08
2018-02-11T00:41:16.090Z,22.11
2018-02-11T00:41:48.090Z,22.05
2018-02-11T00:42:20.179Z,22.12
2018-02-11T00:42:52.280Z,22.09
2018-02-11T00:43:24.322Z,22.14
2018-02-11T00:43:56.379Z,22.12
2018-02-11T00:44:28.362Z,22.14
2018-02-11T00:45:01.287Z,22.08
2018-02-11T00:45:33.307Z,22.04
2018-02-11T00:46:05.350Z,22.08
2018-02-11T00:46:37.385Z,22.08
2018-02-11T00:47:09.404Z,22.11
2018-02-11T00:47:41.354Z,22.09
2018-02-11T00:48:14.089Z,22.08
2018-02-11T00:48:46.094Z,22.08
2018-02-11T00:49:18.248Z,22.12
2018-02-11T00:49:50.281Z,22.11
2018-02-11T00:50:22.297Z,22.11
2018-02-11T00:50:54.330Z,22.08
2018-02-11T00:51:26.386Z,22.09
2018-02-11T00:51:58.512Z,22.07
2018-02-11T00:52:30.511Z,22.08
2018-02-11T00:53:02.529Z,22.12
2018-02-11T00:53:34.592Z,22.11
2018-02-11T00:54:06.712Z,22.08
2018-02-11T00:54:40.187Z,22.11
2018-02-11T00:55:12.215Z,22.15
2018-02-11T00:55:44.240Z,22.05
2018-02-11T00:56:16.990Z,22.12
2018-02-11T00:56:48.975Z,22.02
2018-02-11T00:57:20.988Z,22.15
2018-02-11T00:57:53.058Z,22.08
2018-02-11T00:58:25.057Z,22.07
2018-02-11T00:58:57.056Z,22.07
2018-02-11T00:59:29.035Z,22.11
2018-02-11T01:00:01.069Z,22.15
2018-02-11T01:00:33.089Z,22.07
2018-02-11T01:01:05.097Z,22.07
2018-02-11T01:01:37.080Z,22.12
2018-02-11T01:02:09.087Z,22.08
2018-02-11T01:02:41.708Z,22.08
2018-02-11T01:03:13.725Z,22.08
2018-02-11T01:03:46.689Z,22.12
2018-02-11T01:04:18.734Z,22.12
2018-02-11T01:04:50.732Z,22.11
2018-02-11T01:05:22.755Z,22.09
2018-02-11T01:05:54.748Z,22.11
2018-02-11T01:06:26.764Z,22.08
2018-02-11T01:06:59.685Z,22.11
2018-02-11T01:07:31.714Z,22.04
2018-02-11T01:08:03.703Z,22.14
2018-02-11T01:08:35.687Z,22.04
2018-02-11T01:09:07.709Z,22.11
2018-02-11T01:09:39.856Z,22.12
2018-02-11T01:10:11.916Z,22.11
2018-02-11T01:10:44.781Z,22.09
2018-02-11T01:11:16.778Z,22.14
2018-02-11T01:11:48.800Z,22.08
2018-02-11T01:12:20.849Z,22.04
2018-02-11T01:12:52.856Z,22.09
2018-02-11T01:13:24.891Z,22.11
2018-02-11T01:13:56.885Z,22.07
2018-02-11T01:14:28.861Z,22.07
2018-02-11T01:15:00.862Z,22.08
2018-02-11T01:15:33.785Z,22.05
2018-02-11T01:16:05.793Z,22.05
2018-02-11T01:16:37.808Z,22.05
2018-02-11T01:17:09.764Z,22.08
2018-02-11T01:17:41.713Z,21.96
2018-02-11T01:18:13.743Z,21.97
2018-02-11T01:18:45.786Z,22.02
2018-02-11T01:19:17.773Z,22.05
2018-02-11T01:19:49.798Z,22.02
2018-02-11T01:20:21.986Z,21.99
2018-02-11T01:20:53.958Z,22.04
2018-02-11T01:21:25.961Z,22
2018-02-11T01:21:57.947Z,22.04
2018-02-11T01:22:30.692Z,21.93
2018-02-11T01:23:02.730Z,22.07
2018-02-11T01:23:34.701Z,22.02
2018-02-11T01:24:06.750Z,21.93
2018-02-11T01:24:38.906Z,21.97
2018-02-11T01:25:10.958Z,22.05
2018-02-11T01:25:42.971Z,22.02
2018-02-11T01:26:15.001Z,21.97
2018-02-11T01:26:47.050Z,21.94
2018-02-11T01:27:19.101Z,21.93
2018-02-11T01:27:51.137Z,22
2018-02-11T01:28:23.128Z,21.92
2018-02-11T01:28:55.152Z,21.93
2018-02-11T01:29:27.195Z,22
2018-02-11T01:29:59.216Z,21.99
2018-02-11T01:30:31.260Z,22
2018-02-11T01:31:04.081Z,21.97
2018-02-11T01:31:36.101Z,22.04
2018-02-11T01:32:08.996Z,21.97
2018-02-11T01:32:41.044Z,21.99
2018-02-11T01:33:13.032Z,22.02
2018-02-11T01:33:45.601Z,21.97
2018-02-11T01:34:17.572Z,22
2018-02-11T01:34:49.555Z,22.04
2018-02-11T01:35:21.576Z,21.99
2018-02-11T01:35:53.559Z,21.97
2018-02-11T01:36:25.581Z,21.96
2018-02-11T01:36:57.553Z,21.99
2018-02-11T01:37:29.573Z,22.02
2018-02-11T01:38:01.575Z,22.08
2018-02-11T01:38:33.574Z,21.96
2018-02-11T01:39:05.633Z,22.07
2018-02-11T01:39:37.759Z,21.99
2018-02-11T01:40:09.863Z,22
2018-02-11T01:40:41.866Z,21.96
2018-02-11T01:41:13.928Z,22.05
2018-02-11T01:41:45.946Z,22.07
2018-02-11T01:42:18.030Z,22.07
2018-02-11T01:42:50.014Z,22.07
2018-02-11T01:43:22.024Z,22
2018-02-11T01:43:54.051Z,22.07
2018-02-11T01:44:26.047Z,22.08
2018-02-11T01:44:58.054Z,22.08
2018-02-11T01:45:30.126Z,22.09
2018-02-11T01:46:02.116Z,22.07
2018-02-11T01:46:34.211Z,22.07
2018-02-11T01:47:06.188Z,22.08
2018-02-11T01:47:38.230Z,22.04
2018-02-11T01:48:10.249Z,22.07
2018-02-11T01:48:42.368Z,22.11
2018-02-11T01:49:14.609Z,22.08
2018-02-11T01:49:46.604Z,22.08
2018-02-11T01:50:18.586Z,22.11
2018-02-11T01:50:50.628Z,22.09
2018-02-11T01:51:22.704Z,22.08
2018-02-11T01:51:54.692Z,22.04
2018-02-11T01:52:26.700Z,22.05
2018-02-11T01:52:58.777Z,22.05
2018-02-11T01:53:30.797Z,22.09
2018-02-11T01:54:02.793Z,22.08
2018-02-11T01:54:34.853Z,22.11
2018-02-11T01:55:06.855Z,22.11
2018-02-11T01:55:38.846Z,22.09
2018-02-11T01:56:10.889Z,22.14
2018-02-11T01:56:42.952Z,22.12
2018-02-11T01:57:15.005Z,22.09
2018-02-11T01:57:47.022Z,22.05
2018-02-11T01:58:19.152Z,22.12
2018-02-11T01:58:51.114Z,22.07
2018-02-11T01:59:23.175Z,22.04
2018-02-11T01:59:55.245Z,22.11
2018-02-11T02:00:27.212Z,22.08
2018-02-11T02:00:59.230Z,22.09
2018-02-11T02:01:31.260Z,22.08
2018-02-11T02:02:03.286Z,22.11
2018-02-11T02:02:35.329Z,22.14
2018-02-11T02:03:07.366Z,22.11
2018-02-11T02:03:40.294Z,22.08
2018-02-11T02:04:12.329Z,22.07
2018-02-11T02:04:44.322Z,22.11
2018-02-11T02:05:16.363Z,22.09
2018-02-11T02:05:49.215Z,22.08
2018-02-11T02:06:21.232Z,22.11
2018-02-11T02:06:53.267Z,22.11
2018-02-11T02:07:25.271Z,22.08
2018-02-11T02:07:57.273Z,22.15
2018-02-11T02:08:29.331Z,22.11
2018-02-11T02:09:01.360Z,22.08
2018-02-11T02:09:33.387Z,22.08
2018-02-11T02:10:05.411Z,22.09
2018-02-11T02:10:37.414Z,22.02
2018-02-11T02:11:09.446Z,22.11
2018-02-11T02:11:41.449Z,22.08
2018-02-11T02:12:13.428Z,22.09
2018-02-11T02:12:45.470Z,22.14
2018-02-11T02:13:17.465Z,22.07
2018-02-11T02:13:49.469Z,22.07
2018-02-11T02:14:21.542Z,22.11
2018-02-11T02:14:53.546Z,22.11
2018-02-11T02:15:25.528Z,22.05
2018-02-11T02:15:57.533Z,22.08
2018-02-11T02:16:30.730Z,22.07
2018-02-11T02:17:02.720Z,22.07
2018-02-11T02:17:35.304Z,22.08
2018-02-11T02:18:07.287Z,22.12
2018-02-11T02:18:39.311Z,22.11
2018-02-11T02:19:11.351Z,22.11
2018-02-11T02:19:43.350Z,22.11
2018-02-11T02:20:15.402Z,22.08
2018-02-11T02:20:47.439Z,22.15
2018-02-11T02:21:19.506Z,22.11
2018-02-11T02:21:51.519Z,22.12
2018-02-11T02:22:23.496Z,22.11
2018-02-11T02:22:55.501Z,22.11
2018-02-11T02:23:28.249Z,22.07
2018-02-11T02:24:00.245Z,22.07
2018-02-11T02:24:32.274Z,22.09
2018-02-11T02:25:04.263Z,22.11
2018-02-11T02:25:36.278Z,22.11
2018-02-11T02:26:08.285Z,22.08
2018-02-11T02:26:40.303Z,22.08
2018-02-11T02:27:12.278Z,22.11
2018-02-11T02:27:44.308Z,22.12
2018-02-11T02:28:17.229Z,22.07
2018-02-11T02:28:49.203Z,22.16
2018-02-11T02:29:21.248Z,22.11
2018-02-11T02:29:53.278Z,22.09
2018-02-11T02:30:25.310Z,22.12
2018-02-11T02:30:57.357Z,22.15
2018-02-11T02:31:29.378Z,22.14
2018-02-11T02:32:01.496Z,22.08
2018-02-11T02:32:33.517Z,22.16
2018-02-11T02:33:06.026Z,22.14
2018-02-11T02:33:38.032Z,22.22
2018-02-11T02:34:10.069Z,22.18
2018-02-11T02:34:42.099Z,22.22
2018-02-11T02:35:15.058Z,22.22
2018-02-11T02:35:47.077Z,22.16
2018-02-11T02:36:19.653Z,22.27
2018-02-11T02:36:51.780Z,22.12
2018-02-11T02:37:24.345Z,22.24
2018-02-11T02:37:56.334Z,22.15
2018-02-11T02:38:28.361Z,22.18
2018-02-11T02:39:00.364Z,22.24
2018-02-11T02:39:32.392Z,22.23
2018-02-11T02:40:05.388Z,22.16
2018-02-11T02:40:37.486Z,22.11
2018-02-11T02:41:09.495Z,22.15
2018-02-11T02:41:42.141Z,22.26
2018-02-11T02:42:14.217Z,22.12
2018-02-11T02:42:47.017Z,22.22
2018-02-11T02:43:19.070Z,22.18
2018-02-11T02:43:51.087Z,22.18
2018-02-11T02:44:23.112Z,22.2
2018-02-11T02:44:55.102Z,22.12
2018-02-11T02:45:27.128Z,22.07
2018-02-11T02:45:59.159Z,22.26
2018-02-11T02:46:31.209Z,22.14
2018-02-11T02:47:03.210Z,22.22
2018-02-11T02:47:35.740Z,22.24
2018-02-11T02:48:07.735Z,22.16
2018-02-11T02:48:39.720Z,22.2
2018-02-11T02:49:11.727Z,22.22
2018-02-11T02:49:44.656Z,22.18
2018-02-11T02:50:16.777Z,22.08
2018-02-11T02:50:48.798Z,22.09
2018-02-11T02:51:20.807Z,22.12
2018-02-11T02:51:52.784Z,22.16
2018-02-11T02:52:24.779Z,22.18
2018-02-11T02:52:56.815Z,22.2
2018-02-11T02:53:28.887Z,22.14
2018-02-11T02:54:00.891Z,22.15
2018-02-11T02:54:32.942Z,22.11
2018-02-11T02:55:04.978Z,22.11
2018-02-11T02:55:37.023Z,22.15
2018-02-11T02:56:09.066Z,22.11
2018-02-11T02:56:41.073Z,22.15
2018-02-11T02:57:13.115Z,22.11
2018-02-11T02:57:45.129Z,22.11
2018-02-11T02:58:17.125Z,22.11
2018-02-11T02:58:49.304Z,22.11
2018-02-11T02:59:21.360Z,22.11
2018-02-11T02:59:54.244Z,22.07
2018-02-11T03:00:26.334Z,22.09
2018-02-11T03:00:58.322Z,22.07
2018-02-11T03:01:30.365Z,22.08
2018-02-11T03:02:02.341Z,22.07
2018-02-11T03:02:35.146Z,22
2018-02-11T03:03:07.298Z,22.02
2018-02-11T03:03:39.423Z,22.02
2018-02-11T03:04:11.415Z,22.02
2018-02-11T03:04:43.417Z,22.05
2018-02-11T03:05:15.472Z,22.02
2018-02-11T03:05:47.488Z,22.08
2018-02-11T03:06:19.440Z,22.05
2018-02-11T03:06:51.461Z,21.94
2018-02-11T03:07:23.485Z,21.94
2018-02-11T03:07:55.527Z,22.05
2018-02-11T03:08:27.567Z,21.97
2018-02-11T03:08:59.636Z,21.94
2018-02-11T03:09:31.710Z,21.99
2018-02-11T03:10:03.678Z,21.9
2018-02-11T03:10:36.639Z,21.96
2018-02-11T03:11:09.177Z,21.94
2018-02-11T03:11:41.193Z,21.92
2018-02-11T03:12:13.236Z,21.93
2018-02-11T03:12:45.223Z,21.89
2018-02-11T03:13:17.256Z,21.99
2018-02-11T03:13:49.261Z,21.89
2018-02-11T03:14:21.299Z,21.97
2018-02-11T03:14:53.386Z,21.92
2018-02-11T03:15:25.398Z,21.9
2018-02-11T03:15:57.387Z,21.93
2018-02-11T03:16:29.433Z,21.93
2018-02-11T03:17:01.472Z,21.83
2018-02-11T03:17:33.491Z,21.85
2018-02-11T03:18:05.541Z,21.89
2018-02-11T03:18:37.538Z,21.82
2018-02-11T03:19:09.538Z,21.74
2018-02-11T03:19:41.609Z,21.92
2018-02-11T03:20:13.622Z,21.83
2018-02-11T03:20:46.171Z,21.85
2018-02-11T03:21:18.212Z,21.82
2018-02-11T03:21:50.265Z,21.82
2018-02-11T03:22:22.278Z,21.85
2018-02-11T03:22:54.252Z,21.77
2018-02-11T03:23:26.288Z,21.76
2018-02-11T03:23:58.881Z,21.8
2018-02-11T03:24:30.908Z,21.83
2018-02-11T03:25:02.990Z,21.85
2018-02-11T03:25:35.068Z,21.77
2018-02-11T03:26:07.100Z,21.8
2018-02-11T03:26:39.092Z,21.76
2018-02-11T03:27:11.970Z,21.82
2018-02-11T03:27:44.075Z,21.78
2018-02-11T03:28:16.114Z,21.73
2018-02-11T03:28:48.137Z,21.82
2018-02-11T03:29:20.137Z,21.76
2018-02-11T03:29:52.271Z,21.74
2018-02-11T03:30:24.257Z,21.78
2018-02-11T03:30:56.246Z,21.77
2018-02-11T03:31:28.264Z,21.71
2018-02-11T03:32:00.262Z,21.74
2018-02-11T03:32:32.285Z,21.74
2018-02-11T03:33:04.361Z,21.77
2018-02-11T03:33:36.416Z,21.76
2018-02-11T03:34:08.549Z,21.74
2018-02-11T03:34:40.565Z,21.67
2018-02-11T03:35:12.553Z,21.77
2018-02-11T03:35:44.566Z,21.71
2018-02-11T03:36:16.597Z,21.73
2018-02-11T03:36:49.349Z,21.74
2018-02-11T03:37:21.409Z,21.76
2018-02-11T03:37:53.387Z,21.8
2018-02-11T03:38:25.400Z,21.78
2018-02-11T03:38:57.408Z,21.73
2018-02-11T03:39:29.446Z,21.76
2018-02-11T03:40:01.525Z,21.74
2018-02-11T03:40:34.197Z,21.78
2018-02-11T03:41:06.227Z,21.73
2018-02-11T03:41:38.199Z,21.68
2018-02-11T03:42:10.215Z,21.77
2018-02-11T03:42:42.241Z,21.76
2018-02-11T03:43:14.219Z,21.8
2018-02-11T03:43:46.190Z,21.73
2018-02-11T03:44:18.341Z,21.73
2018-02-11T03:44:50.358Z,21.78
2018-02-11T03:45:22.398Z,21.78
2018-02-11T03:45:54.380Z,21.78
2018-02-11T03:46:26.464Z,21.74
2018-02-11T03:46:58.468Z,21.76
2018-02-11T03:47:30.497Z,21.76
2018-02-11T03:48:02.502Z,21.73
2018-02-11T03:48:34.572Z,21.77
2018-02-11T03:49:06.582Z,21.74
2018-02-11T03:49:38.592Z,21.74
2018-02-11T03:50:10.596Z,21.76
2018-02-11T03:50:42.564Z,21.8
2018-02-11T03:51:14.644Z,21.74
2018-02-11T03:51:46.628Z,21.78
2018-02-11T03:52:18.691Z,21.71
2018-02-11T03:52:50.760Z,21.76
2018-02-11T03:53:22.739Z,21.76
2018-02-11T03:53:54.760Z,21.85
2018-02-11T03:54:26.778Z,21.74
2018-02-11T03:54:58.734Z,21.8
2018-02-11T03:55:30.766Z,21.78
2018-02-11T03:56:02.768Z,21.8
2018-02-11T03:56:35.300Z,21.74
2018-02-11T03:57:07.380Z,21.76
2018-02-11T03:57:40.070Z,21.77
2018-02-11T03:58:13.606Z,21.74
2018-02-11T03:58:45.587Z,21.8
2018-02-11T03:59:17.608Z,21.7
2018-02-11T03:59:49.618Z,21.67
2018-02-11T04:00:21.666Z,21.73
2018-02-11T04:00:53.704Z,21.64
2018-02-11T04:01:25.713Z,21.74
2018-02-11T04:01:57.711Z,21.66
2018-02-11T04:02:29.738Z,21.74
2018-02-11T04:03:01.758Z,21.61
2018-02-11T04:03:33.813Z,21.64
2018-02-11T04:04:05.828Z,21.7
2018-02-11T04:04:37.828Z,21.59
2018-02-11T04:05:09.839Z,21.67
2018-02-11T04:05:41.885Z,21.67
2018-02-11T04:06:13.936Z,21.61
2018-02-11T04:06:45.915Z,21.61
2018-02-11T04:07:18.005Z,21.62
2018-02-11T04:07:50.582Z,21.64
2018-02-11T04:08:22.615Z,21.61
2018-02-11T04:08:54.609Z,21.67
2018-02-11T04:09:27.476Z,21.61
2018-02-11T04:09:59.502Z,21.58
2018-02-11T04:10:31.529Z,21.56
2018-02-11T04:11:03.530Z,21.59
2018-02-11T04:11:35.541Z,21.56
2018-02-11T04:12:07.560Z,21.64
2018-02-11T04:12:39.746Z,21.59
2018-02-11T04:13:11.754Z,21.61
2018-02-11T04:13:43.748Z,21.61
2018-02-11T04:14:15.856Z,21.55
2018-02-11T04:14:47.879Z,21.52
2018-02-11T04:15:20.572Z,21.52
2018-02-11T04:15:52.577Z,21.53
2018-02-11T04:16:24.596Z,21.53
2018-02-11T04:16:56.603Z,21.53
2018-02-11T04:17:28.557Z,21.53
2018-02-11T04:18:01.179Z,21.59
2018-02-11T04:18:33.229Z,21.58
2018-02-11T04:19:05.264Z,21.46
2018-02-11T04:19:37.904Z,21.46
2018-02-11T04:20:09.910Z,21.59
2018-02-11T04:20:42.616Z,21.48
2018-02-11T04:21:14.640Z,21.46
2018-02-11T04:21:46.598Z,21.45
2018-02-11T04:22:18.641Z,21.46
2018-02-11T04:22:50.645Z,21.45
2018-02-11T04:23:22.790Z,21.49
2018-02-11T04:23:54.826Z,21.53
2018-02-11T04:24:27.288Z,21.46
2018-02-11T04:24:59.888Z,21.43
2018-02-11T04:25:33.108Z,21.46
2018-02-11T04:26:05.134Z,21.52
2018-02-11T04:26:37.189Z,21.51
2018-02-11T04:27:09.199Z,21.49
2018-02-11T04:27:41.230Z,21.48
2018-02-11T04:28:13.232Z,21.46
2018-02-11T04:28:45.364Z,21.45
2018-02-11T04:29:17.408Z,21.46
2018-02-11T04:29:49.431Z,21.43
2018-02-11T04:30:21.561Z,21.37
2018-02-11T04:30:53.567Z,21.49
2018-02-11T04:31:25.585Z,21.41
2018-02-11T04:31:58.124Z,21.43
2018-02-11T04:32:30.789Z,21.48
2018-02-11T04:33:02.804Z,21.37
2018-02-11T04:33:34.905Z,21.38
2018-02-11T04:34:06.888Z,21.34
2018-02-11T04:34:38.903Z,21.34
2018-02-11T04:35:10.940Z,21.45
2018-02-11T04:35:42.931Z,21.33
2018-02-11T04:36:14.917Z,21.36
2018-02-11T04:36:46.896Z,21.34
2018-02-11T04:37:18.952Z,21.38
2018-02-11T04:37:51.004Z,21.34
2018-02-11T04:38:22.981Z,21.36
2018-02-11T04:38:55.021Z,21.37
2018-02-11T04:39:27.072Z,21.36
2018-02-11T04:39:59.825Z,21.34
2018-02-11T04:40:31.832Z,21.34
2018-02-11T04:41:03.836Z,21.28
2018-02-11T04:41:35.885Z,21.3
2018-02-11T04:42:07.904Z,21.3
2018-02-11T04:42:39.917Z,21.33
2018-02-11T04:43:11.906Z,21.33
2018-02-11T04:43:44.627Z,21.37
2018-02-11T04:44:16.643Z,21.36
2018-02-11T04:44:48.598Z,21.33
2018-02-11T04:45:20.612Z,21.36
2018-02-11T04:45:52.597Z,21.34
2018-02-11T04:46:24.629Z,21.37
2018-02-11T04:46:56.621Z,21.34
2018-02-11T04:47:29.536Z,21.25
2018-02-11T04:48:01.567Z,21.31
2018-02-11T04:48:33.599Z,21.3
2018-02-11T04:49:05.637Z,21.25
2018-02-11T04:49:37.629Z,21.27
2018-02-11T04:50:09.673Z,21.34
2018-02-11T04:50:41.645Z,21.21
2018-02-11T04:51:13.616Z,21.27
2018-02-11T04:51:45.631Z,21.23
2018-02-11T04:52:17.662Z,21.23
2018-02-11T04:52:49.756Z,21.25
2018-02-11T04:53:21.779Z,21.27
2018-02-11T04:53:53.724Z,21.25
2018-02-11T04:54:25.842Z,21.25
2018-02-11T04:54:58.806Z,21.21
2018-02-11T04:55:30.770Z,21.3
2018-02-11T04:56:02.738Z,21.19
2018-02-11T04:56:34.730Z,21.22
2018-02-11T04:57:06.755Z,21.19
2018-02-11T04:57:39.519Z,21.22
2018-02-11T04:58:11.530Z,21.27
2018-02-11T04:58:44.336Z,21.19
2018-02-11T04:59:16.341Z,21.19
2018-02-11T04:59:48.395Z,21.21
2018-02-11T05:00:20.410Z,21.23
2018-02-11T05:00:52.413Z,21.25
2018-02-11T05:01:24.447Z,21.16
2018-02-11T05:01:56.468Z,21.21
2018-02-11T05:02:29.023Z,21.25
2018-02-11T05:03:01.810Z,21.18
2018-02-11T05:03:33.905Z,21.27
2018-02-11T05:04:05.927Z,21.23
2018-02-11T05:04:37.948Z,21.21
2018-02-11T05:05:09.992Z,21.21
2018-02-11T05:05:41.992Z,21.22
2018-02-11T05:06:14.013Z,21.23
2018-02-11T05:06:46.027Z,21.33
2018-02-11T05:07:18.050Z,21.22
2018-02-11T05:07:50.069Z,21.27
2018-02-11T05:08:22.097Z,21.28
2018-02-11T05:08:54.121Z,21.23
2018-02-11T05:09:26.158Z,21.23
2018-02-11T05:09:58.204Z,21.23
2018-02-11T05:10:30.230Z,21.31
2018-02-11T05:11:02.257Z,21.25
2018-02-11T05:11:34.294Z,21.28
2018-02-11T05:12:06.317Z,21.21
2018-02-11T05:12:38.355Z,21.23
2018-02-11T05:13:10.375Z,21.25
2018-02-11T05:13:42.421Z,21.22
2018-02-11T05:14:14.445Z,21.27
2018-02-11T05:14:46.425Z,21.25
2018-02-11T05:15:18.429Z,21.3
2018-02-11T05:15:50.416Z,21.22
2018-02-11T05:16:22.390Z,21.21
2018-02-11T05:16:54.546Z,21.33
2018-02-11T05:17:26.684Z,21.18
2018-02-11T05:17:58.697Z,21.36
2018-02-11T05:18:30.698Z,21.33
2018-02-11T05:19:02.750Z,21.21
2018-02-11T05:19:34.770Z,21.21
2018-02-11T05:20:06.812Z,21.21
2018-02-11T05:20:38.795Z,21.21
2018-02-11T05:21:10.832Z,21.18
2018-02-11T05:21:42.832Z,21.16
2018-02-11T05:22:14.801Z,21.19
2018-02-11T05:22:46.801Z,21.21
2018-02-11T05:23:18.805Z,21.19
2018-02-11T05:23:50.889Z,21.21
2018-02-11T05:24:22.902Z,21.22
2018-02-11T05:24:54.897Z,21.13
2018-02-11T05:25:26.923Z,21.15
2018-02-11T05:25:58.912Z,21.15
2018-02-11T05:26:30.912Z,21.13
2018-02-11T05:27:02.909Z,21.16
2018-02-11T05:27:34.884Z,21.15
2018-02-11T05:28:06.883Z,21.13
2018-02-11T05:28:38.936Z,21.09
2018-02-11T05:29:10.950Z,21.15
2018-02-11T05:29:44.324Z,21.16
2018-02-11T05:30:16.403Z,21.18
2018-02-11T05:30:48.448Z,21.16
2018-02-11T05:31:20.537Z,21.13
2018-02-11T05:31:52.503Z,21.12
2018-02-11T05:32:24.549Z,21.08
2018-02-11T05:32:56.599Z,21.15
2018-02-11T05:33:28.636Z,21.15
2018-02-11T05:34:00.579Z,21.13
2018-02-11T05:34:33.396Z,21.16
2018-02-11T05:35:05.503Z,21.12
2018-02-11T05:35:37.515Z,21.11
2018-02-11T05:36:09.492Z,21.15
2018-02-11T05:36:41.600Z,21.15
2018-02-11T05:37:13.628Z,21.06
2018-02-11T05:37:45.662Z,21.04
2018-02-11T05:38:17.671Z,21.11
2018-02-11T05:38:49.679Z,21.04
2018-02-11T05:39:21.687Z,21.04
2018-02-11T05:39:53.675Z,21.08
2018-02-11T05:40:25.720Z,21.09
2018-02-11T05:40:57.746Z,21.01
2018-02-11T05:41:29.882Z,21.08
2018-02-11T05:42:01.865Z,21.08
2018-02-11T05:42:33.855Z,21.01
2018-02-11T05:43:06.565Z,21.03
2018-02-11T05:43:38.556Z,21.06
2018-02-11T05:44:10.671Z,21.06
2018-02-11T05:44:43.552Z,21.08
2018-02-11T05:45:15.569Z,21
2018-02-11T05:45:47.608Z,21.09
2018-02-11T05:46:19.617Z,21.15
2018-02-11T05:46:51.736Z,21.09
2018-02-11T05:47:23.757Z,21.08
2018-02-11T05:47:55.768Z,20.98
2018-02-11T05:48:27.790Z,20.97
2018-02-11T05:48:59.732Z,21.09
2018-02-11T05:49:31.786Z,21.03
2018-02-11T05:50:03.914Z,21
2018-02-11T05:50:36.831Z,21.01
2018-02-11T05:51:09.436Z,21.01
2018-02-11T05:51:41.456Z,20.98
2018-02-11T05:52:13.484Z,21
2018-02-11T05:52:45.453Z,21.01
2018-02-11T05:53:18.757Z,21.01
2018-02-11T05:53:50.782Z,21.03
2018-02-11T05:54:22.827Z,21.03
2018-02-11T05:54:54.838Z,20.98
2018-02-11T05:55:26.938Z,21
2018-02-11T05:55:58.919Z,20.88
2018-02-11T05:56:30.931Z,21
2018-02-11T05:57:02.912Z,21.01
2018-02-11T05:57:34.949Z,20.97
2018-02-11T05:58:06.974Z,20.91
2018-02-11T05:58:39.098Z,20.96
2018-02-11T05:59:11.097Z,20.96
2018-02-11T05:59:43.844Z,20.97
2018-02-11T06:00:15.811Z,20.91
2018-02-11T06:00:47.833Z,20.94
2018-02-11T06:01:19.805Z,20.98
2018-02-11T06:01:51.880Z,20.96
2018-02-11T06:02:23.900Z,20.98
2018-02-11T06:02:55.902Z,20.86
2018-02-11T06:03:27.892Z,20.91
2018-02-11T06:03:59.912Z,20.98
2018-02-11T06:04:31.962Z,20.81
2018-02-11T06:05:04.030Z,20.91
2018-02-11T06:05:36.052Z,20.91
2018-02-11T06:06:08.061Z,20.94
2018-02-11T06:06:40.074Z,20.94
2018-02-11T06:07:12.075Z,20.93
2018-02-11T06:07:45.052Z,20.88
2018-02-11T06:08:17.069Z,20.82
2018-02-11T06:08:49.180Z,20.93
2018-02-11T06:09:21.196Z,20.96
2018-02-11T06:09:53.223Z,20.9
2018-02-11T06:10:25.227Z,20.91
2018-02-11T06:10:57.244Z,20.93
2018-02-11T06:11:29.307Z,20.9
2018-02-11T06:12:01.339Z,20.94
2018-02-11T06:12:33.332Z,20.91
2018-02-11T06:13:05.287Z,20.93
2018-02-11T06:13:37.281Z,20.83
2018-02-11T06:14:09.305Z,20.93
2018-02-11T06:14:41.366Z,20.83
2018-02-11T06:15:13.505Z,20.88
2018-02-11T06:15:45.483Z,20.9
2018-02-11T06:16:17.517Z,20.91
2018-02-11T06:16:49.570Z,20.79
2018-02-11T06:17:21.585Z,20.82
2018-02-11T06:17:53.608Z,20.81
2018-02-11T06:18:25.621Z,20.79
2018-02-11T06:18:57.606Z,20.86
2018-02-11T06:19:29.659Z,20.85
2018-02-11T06:20:01.755Z,20.81
2018-02-11T06:20:33.754Z,20.76
2018-02-11T06:21:05.756Z,20.86
2018-02-11T06:21:37.769Z,20.91
2018-02-11T06:22:09.761Z,20.9
2018-02-11T06:22:41.776Z,20.81
2018-02-11T06:23:13.842Z,20.79
2018-02-11T06:23:47.949Z,20.76
2018-02-11T06:24:20.744Z,20.76
2018-02-11T06:24:52.818Z,20.88
2018-02-11T06:25:24.996Z,20.82
2018-02-11T06:25:56.983Z,20.82
2018-02-11T06:26:28.948Z,20.76
2018-02-11T06:27:00.972Z,20.82
2018-02-11T06:27:33.024Z,20.86
2018-02-11T06:28:05.008Z,20.88
2018-02-11T06:28:37.022Z,20.83
2018-02-11T06:29:09.014Z,20.82
2018-02-11T06:29:41.036Z,20.82
2018-02-11T06:30:13.089Z,20.85
2018-02-11T06:30:45.964Z,20.81
2018-02-11T06:31:17.951Z,20.76
2018-02-11T06:31:49.964Z,20.74
2018-02-11T06:32:21.974Z,20.83
2018-02-11T06:32:54.000Z,20.86
2018-02-11T06:33:25.999Z,20.81
2018-02-11T06:33:58.056Z,20.81
2018-02-11T06:34:30.066Z,20.83
2018-02-11T06:35:02.109Z,20.82
2018-02-11T06:35:34.857Z,20.85
2018-02-11T06:36:06.845Z,20.81
2018-02-11T06:36:38.859Z,20.79
2018-02-11T06:37:10.874Z,20.79
2018-02-11T06:37:42.879Z,20.83
2018-02-11T06:38:14.991Z,20.85
2018-02-11T06:38:47.089Z,20.85
2018-02-11T06:39:19.658Z,20.81
2018-02-11T06:39:52.180Z,20.86
2018-02-11T06:40:24.156Z,20.85
2018-02-11T06:40:56.196Z,20.74
2018-02-11T06:41:28.290Z,20.85
2018-02-11T06:42:00.462Z,20.79
2018-02-11T06:42:32.487Z,20.78
2018-02-11T06:43:04.548Z,20.79
2018-02-11T06:43:36.600Z,20.75
2018-02-11T06:44:08.627Z,20.76
2018-02-11T06:44:40.673Z,20.82
2018-02-11T06:45:12.679Z,20.83
2018-02-11T06:45:44.728Z,20.76
2018-02-11T06:46:16.736Z,20.74
2018-02-11T06:46:49.484Z,20.79
2018-02-11T06:47:21.454Z,20.79
2018-02-11T06:47:53.437Z,20.74
2018-02-11T06:48:25.493Z,20.72
2018-02-11T06:48:57.465Z,20.79
2018-02-11T06:49:29.549Z,20.83
2018-02-11T06:50:01.556Z,20.82
2018-02-11T06:50:33.561Z,20.75
2018-02-11T06:51:05.591Z,20.79
2018-02-11T06:51:37.568Z,20.79
2018-02-11T06:52:09.605Z,20.82
2018-02-11T06:52:41.618Z,20.78
2018-02-11T06:53:13.636Z,20.75
2018-02-11T06:53:45.647Z,20.76
2018-02-11T06:54:17.655Z,20.76
2018-02-11T06:54:49.699Z,20.81